sensor_id;sensor_type;location;lat;lon;timestamp;P1;durP1;ratioP1;P2;durP2;ratioP2
1993;SDS011;998;49.906;10.908;2022-07-21T00:03:34;6.43;;;5.40;;
1993;SDS011;998;49.906;10.908;2022-07-21T00:06:38;6.20;;;5.07;;
1993;SDS011;998;49.906;10.908;2022-07-21T00:09:33;5.17;;;4.67;;
1993;SDS011;998;49.906;10.908;2022-07-21T00:12:17;6.83;;;4.43;;
1993;SDS011;998;49.906;10.908;2022-07-21T00:18:28;5.83;;;4.13;;
1993;SDS011;998;49.906;10.908;2022-07-21T00:25:14;6.10;;;4.70;;
1993;SDS011;998;49.906;10.908;2022-07-21T00:31:02;5.23;;;4.37;;
1993;SDS011;998;49.906;10.908;2022-07-21T00:33:29;5.70;;;4.57;;
1993;SDS011;998;49.906;10.908;2022-07-21T00:35:56;6.40;;;3.63;;
1993;SDS011;998;49.906;10.908;2022-07-21T00:38:23;6.80;;;4.67;;
1993;SDS011;998;49.906;10.908;2022-07-21T00:40:52;14.20;;;4.37;;
1993;SDS011;998;49.906;10.908;2022-07-21T00:43:19;5.50;;;4.40;;
1993;SDS011;998;49.906;10.908;2022-07-21T00:45:46;6.40;;;4.30;;
1993;SDS011;998;49.906;10.908;2022-07-21T00:48:13;7.00;;;4.30;;
1993;SDS011;998;49.906;10.908;2022-07-21T00:50:40;5.80;;;4.13;;
1993;SDS011;998;49.906;10.908;2022-07-21T00:53:07;6.57;;;4.33;;
1993;SDS011;998;49.906;10.908;2022-07-21T00:55:34;5.60;;;4.20;;
1993;SDS011;998;49.906;10.908;2022-07-21T00:58:02;5.40;;;4.10;;
1993;SDS011;998;49.906;10.908;2022-07-21T01:00:30;8.53;;;4.80;;
1993;SDS011;998;49.906;10.908;2022-07-21T01:02:57;6.80;;;4.60;;
1993;SDS011;998;49.906;10.908;2022-07-21T01:05:24;7.20;;;3.80;;
1993;SDS011;998;49.906;10.908;2022-07-21T01:07:52;5.10;;;4.40;;
1993;SDS011;998;49.906;10.908;2022-07-21T01:10:21;6.50;;;3.90;;
1993;SDS011;998;49.906;10.908;2022-07-21T01:12:50;6.27;;;4.37;;
1993;SDS011;998;49.906;10.908;2022-07-21T01:15:19;6.37;;;4.67;;
1993;SDS011;998;49.906;10.908;2022-07-21T01:17:46;6.23;;;4.33;;
1993;SDS011;998;49.906;10.908;2022-07-21T01:20:15;5.30;;;4.10;;
1993;SDS011;998;49.906;10.908;2022-07-21T01:22:45;5.50;;;4.23;;
1993;SDS011;998;49.906;10.908;2022-07-21T01:25:14;7.00;;;4.90;;
1993;SDS011;998;49.906;10.908;2022-07-21T01:27:43;5.20;;;4.70;;
1993;SDS011;998;49.906;10.908;2022-07-21T01:30:10;5.70;;;4.53;;
1993;SDS011;998;49.906;10.908;2022-07-21T01:32:39;5.90;;;4.93;;
1993;SDS011;998;49.906;10.908;2022-07-21T01:35:08;9.70;;;4.80;;
1993;SDS011;998;49.906;10.908;2022-07-21T01:37:38;6.60;;;5.23;;
1993;SDS011;998;49.906;10.908;2022-07-21T01:40:12;8.03;;;5.57;;
1993;SDS011;998;49.906;10.908;2022-07-21T01:42:59;8.00;;;5.53;;
1993;SDS011;998;49.906;10.908;2022-07-21T01:45:26;6.17;;;4.50;;
1993;SDS011;998;49.906;10.908;2022-07-21T01:47:56;6.57;;;4.60;;
1993;SDS011;998;49.906;10.908;2022-07-21T01:50:23;6.43;;;5.03;;
1993;SDS011;998;49.906;10.908;2022-07-21T01:52:53;6.80;;;4.60;;
1993;SDS011;998;49.906;10.908;2022-07-21T01:55:22;7.43;;;5.77;;
1993;SDS011;998;49.906;10.908;2022-07-21T01:57:50;19.37;;;5.53;;
1993;SDS011;998;49.906;10.908;2022-07-21T02:00:17;7.20;;;5.87;;
1993;SDS011;998;49.906;10.908;2022-07-21T02:02:44;8.30;;;5.40;;
1993;SDS011;998;49.906;10.908;2022-07-21T02:05:11;7.40;;;4.80;;
1993;SDS011;998;49.906;10.908;2022-07-21T02:07:38;7.13;;;5.00;;
1993;SDS011;998;49.906;10.908;2022-07-21T02:10:05;17.97;;;12.37;;
1993;SDS011;998;49.906;10.908;2022-07-21T02:12:34;14.10;;;9.87;;
1993;SDS011;998;49.906;10.908;2022-07-21T02:15:01;7.60;;;5.50;;
1993;SDS011;998;49.906;10.908;2022-07-21T02:17:28;7.27;;;4.93;;
1993;SDS011;998;49.906;10.908;2022-07-21T02:19:55;9.10;;;5.97;;
1993;SDS011;998;49.906;10.908;2022-07-21T02:22:22;7.80;;;5.43;;
1993;SDS011;998;49.906;10.908;2022-07-21T02:24:48;9.17;;;5.23;;
1993;SDS011;998;49.906;10.908;2022-07-21T02:27:15;8.83;;;4.93;;
1993;SDS011;998;49.906;10.908;2022-07-21T02:29:43;6.37;;;4.97;;
1993;SDS011;998;49.906;10.908;2022-07-21T02:32:10;8.93;;;6.27;;
1993;SDS011;998;49.906;10.908;2022-07-21T02:34:37;8.27;;;5.37;;
1993;SDS011;998;49.906;10.908;2022-07-21T02:37:04;8.87;;;5.00;;
1993;SDS011;998;49.906;10.908;2022-07-21T02:39:31;9.50;;;6.20;;
1993;SDS011;998;49.906;10.908;2022-07-21T02:41:58;10.47;;;6.03;;
1993;SDS011;998;49.906;10.908;2022-07-21T02:44:25;6.77;;;5.53;;
1993;SDS011;998;49.906;10.908;2022-07-21T02:46:53;7.37;;;5.77;;
1993;SDS011;998;49.906;10.908;2022-07-21T02:49:20;7.00;;;5.60;;
1993;SDS011;998;49.906;10.908;2022-07-21T02:51:47;9.03;;;6.70;;
1993;SDS011;998;49.906;10.908;2022-07-21T02:54:14;8.50;;;6.10;;
1993;SDS011;998;49.906;10.908;2022-07-21T02:56:40;9.47;;;6.40;;
1993;SDS011;998;49.906;10.908;2022-07-21T02:59:07;7.17;;;5.83;;
1993;SDS011;998;49.906;10.908;2022-07-21T03:01:34;7.20;;;5.97;;
1993;SDS011;998;49.906;10.908;2022-07-21T03:04:02;8.50;;;7.23;;
1993;SDS011;998;49.906;10.908;2022-07-21T03:06:29;10.30;;;6.63;;
1993;SDS011;998;49.906;10.908;2022-07-21T03:08:56;12.83;;;6.77;;
1993;SDS011;998;49.906;10.908;2022-07-21T03:11:23;12.20;;;6.73;;
1993;SDS011;998;49.906;10.908;2022-07-21T03:13:50;7.00;;;6.00;;
1993;SDS011;998;49.906;10.908;2022-07-21T03:16:17;7.67;;;5.70;;
1993;SDS011;998;49.906;10.908;2022-07-21T03:18:44;9.03;;;6.47;;
1993;SDS011;998;49.906;10.908;2022-07-21T03:21:12;7.30;;;6.03;;
1993;SDS011;998;49.906;10.908;2022-07-21T03:23:39;8.10;;;5.90;;
1993;SDS011;998;49.906;10.908;2022-07-21T03:26:10;7.43;;;6.00;;
1993;SDS011;998;49.906;10.908;2022-07-21T03:28:37;7.77;;;5.97;;
1993;SDS011;998;49.906;10.908;2022-07-21T03:31:04;6.37;;;5.63;;
1993;SDS011;998;49.906;10.908;2022-07-21T03:33:31;7.03;;;5.63;;
1993;SDS011;998;49.906;10.908;2022-07-21T03:35:58;8.37;;;5.90;;
1993;SDS011;998;49.906;10.908;2022-07-21T03:38:27;9.20;;;6.47;;
1993;SDS011;998;49.906;10.908;2022-07-21T03:40:54;9.03;;;5.97;;
1993;SDS011;998;49.906;10.908;2022-07-21T03:43:21;9.97;;;6.47;;
1993;SDS011;998;49.906;10.908;2022-07-21T03:45:48;7.33;;;6.53;;
1993;SDS011;998;49.906;10.908;2022-07-21T03:48:14;7.67;;;6.27;;
1993;SDS011;998;49.906;10.908;2022-07-21T03:50:42;9.30;;;6.80;;
1993;SDS011;998;49.906;10.908;2022-07-21T03:53:09;7.53;;;6.73;;
1993;SDS011;998;49.906;10.908;2022-07-21T03:55:38;7.43;;;6.00;;
1993;SDS011;998;49.906;10.908;2022-07-21T03:58:05;10.00;;;6.33;;
1993;SDS011;998;49.906;10.908;2022-07-21T04:00:33;7.37;;;6.57;;
1993;SDS011;998;49.906;10.908;2022-07-21T04:03:01;8.40;;;7.03;;
1993;SDS011;998;49.906;10.908;2022-07-21T04:05:29;9.87;;;7.07;;
1993;SDS011;998;49.906;10.908;2022-07-21T04:07:57;8.87;;;7.73;;
1993;SDS011;998;49.906;10.908;2022-07-21T04:10:26;10.50;;;8.40;;
1993;SDS011;998;49.906;10.908;2022-07-21T04:12:55;11.80;;;7.83;;
1993;SDS011;998;49.906;10.908;2022-07-21T04:15:24;11.27;;;7.90;;
1993;SDS011;998;49.906;10.908;2022-07-21T04:17:51;9.47;;;7.07;;
1993;SDS011;998;49.906;10.908;2022-07-21T04:20:18;12.33;;;8.23;;
1993;SDS011;998;49.906;10.908;2022-07-21T04:22:47;12.13;;;8.83;;
1993;SDS011;998;49.906;10.908;2022-07-21T04:25:14;10.00;;;7.60;;
1993;SDS011;998;49.906;10.908;2022-07-21T04:27:42;9.43;;;7.83;;
1993;SDS011;998;49.906;10.908;2022-07-21T04:30:12;8.30;;;7.00;;
1993;SDS011;998;49.906;10.908;2022-07-21T04:32:40;10.50;;;7.30;;
1993;SDS011;998;49.906;10.908;2022-07-21T04:35:08;8.73;;;7.17;;
1993;SDS011;998;49.906;10.908;2022-07-21T04:37:35;11.70;;;8.00;;
1993;SDS011;998;49.906;10.908;2022-07-21T04:40:04;9.43;;;7.70;;
1993;SDS011;998;49.906;10.908;2022-07-21T04:42:33;11.87;;;8.60;;
1993;SDS011;998;49.906;10.908;2022-07-21T04:45:00;9.20;;;8.07;;
1993;SDS011;998;49.906;10.908;2022-07-21T04:47:28;8.80;;;7.90;;
1993;SDS011;998;49.906;10.908;2022-07-21T04:49:55;9.53;;;7.20;;
1993;SDS011;998;49.906;10.908;2022-07-21T04:52:22;22.63;;;9.70;;
1993;SDS011;998;49.906;10.908;2022-07-21T04:54:49;12.47;;;7.90;;
1993;SDS011;998;49.906;10.908;2022-07-21T04:57:16;9.00;;;8.10;;
1993;SDS011;998;49.906;10.908;2022-07-21T04:59:43;14.73;;;8.43;;
1993;SDS011;998;49.906;10.908;2022-07-21T05:02:09;10.97;;;7.93;;
1993;SDS011;998;49.906;10.908;2022-07-21T05:04:38;10.10;;;8.87;;
1993;SDS011;998;49.906;10.908;2022-07-21T05:07:04;9.73;;;7.90;;
1993;SDS011;998;49.906;10.908;2022-07-21T05:09:31;12.50;;;8.17;;
1993;SDS011;998;49.906;10.908;2022-07-21T05:11:58;11.90;;;9.33;;
1993;SDS011;998;49.906;10.908;2022-07-21T05:14:25;10.93;;;8.20;;
1993;SDS011;998;49.906;10.908;2022-07-21T05:16:52;12.00;;;8.63;;
1993;SDS011;998;49.906;10.908;2022-07-21T05:19:19;9.53;;;8.37;;
1993;SDS011;998;49.906;10.908;2022-07-21T05:21:47;11.27;;;8.47;;
1993;SDS011;998;49.906;10.908;2022-07-21T05:24:14;12.80;;;8.73;;
1993;SDS011;998;49.906;10.908;2022-07-21T05:26:40;14.00;;;9.30;;
1993;SDS011;998;49.906;10.908;2022-07-21T05:29:07;14.13;;;10.20;;
1993;SDS011;998;49.906;10.908;2022-07-21T05:31:34;11.13;;;9.00;;
1993;SDS011;998;49.906;10.908;2022-07-21T05:34:01;13.17;;;9.90;;
1993;SDS011;998;49.906;10.908;2022-07-21T05:36:28;12.13;;;9.60;;
1993;SDS011;998;49.906;10.908;2022-07-21T05:38:56;12.07;;;10.80;;
1993;SDS011;998;49.906;10.908;2022-07-21T05:41:23;12.40;;;10.10;;
1993;SDS011;998;49.906;10.908;2022-07-21T05:43:50;13.90;;;12.50;;
1993;SDS011;998;49.906;10.908;2022-07-21T05:46:17;14.70;;;12.33;;
1993;SDS011;998;49.906;10.908;2022-07-21T05:48:44;11.47;;;10.23;;
1993;SDS011;998;49.906;10.908;2022-07-21T05:51:11;13.83;;;10.70;;
1993;SDS011;998;49.906;10.908;2022-07-21T05:53:38;11.63;;;10.40;;
1993;SDS011;998;49.906;10.908;2022-07-21T05:56:06;13.53;;;11.10;;
1993;SDS011;998;49.906;10.908;2022-07-21T05:58:33;13.73;;;11.40;;
1993;SDS011;998;49.906;10.908;2022-07-21T06:01:00;11.87;;;10.77;;
1993;SDS011;998;49.906;10.908;2022-07-21T06:03:38;14.00;;;11.20;;
1993;SDS011;998;49.906;10.908;2022-07-21T06:06:07;13.47;;;10.80;;
1993;SDS011;998;49.906;10.908;2022-07-21T06:08:36;12.10;;;10.80;;
1993;SDS011;998;49.906;10.908;2022-07-21T06:11:03;12.57;;;11.27;;
1993;SDS011;998;49.906;10.908;2022-07-21T06:13:31;13.83;;;12.43;;
1993;SDS011;998;49.906;10.908;2022-07-21T06:15:58;13.53;;;11.70;;
1993;SDS011;998;49.906;10.908;2022-07-21T06:18:25;13.80;;;12.40;;
1993;SDS011;998;49.906;10.908;2022-07-21T06:20:52;22.10;;;13.47;;
1993;SDS011;998;49.906;10.908;2022-07-21T06:23:19;14.00;;;12.30;;
1993;SDS011;998;49.906;10.908;2022-07-21T06:25:46;15.23;;;10.80;;
1993;SDS011;998;49.906;10.908;2022-07-21T06:28:14;13.93;;;11.60;;
1993;SDS011;998;49.906;10.908;2022-07-21T06:40:49;14.43;;;12.93;;
1993;SDS011;998;49.906;10.908;2022-07-21T09:13:13;11.10;;;7.80;;
1993;SDS011;998;49.906;10.908;2022-07-21T09:37:04;10.40;;;7.50;;
1993;SDS011;998;49.906;10.908;2022-07-21T09:47:10;8.00;;;7.20;;
1993;SDS011;998;49.906;10.908;2022-07-21T09:52:34;7.50;;;6.40;;
1993;SDS011;998;49.906;10.908;2022-07-21T09:55:09;9.87;;;7.40;;
1993;SDS011;998;49.906;10.908;2022-07-21T09:57:42;8.43;;;7.30;;
1993;SDS011;998;49.906;10.908;2022-07-21T10:00:13;8.73;;;6.80;;
1993;SDS011;998;49.906;10.908;2022-07-21T10:02:47;7.97;;;7.10;;
1993;SDS011;998;49.906;10.908;2022-07-21T10:05:15;12.13;;;6.50;;
1993;SDS011;998;49.906;10.908;2022-07-21T10:07:44;7.13;;;6.30;;
1993;SDS011;998;49.906;10.908;2022-07-21T10:10:12;6.23;;;5.63;;
1993;SDS011;998;49.906;10.908;2022-07-21T10:12:39;5.87;;;5.07;;
1993;SDS011;998;49.906;10.908;2022-07-21T10:15:07;6.40;;;4.90;;
1993;SDS011;998;49.906;10.908;2022-07-21T10:17:35;6.60;;;5.00;;
1993;SDS011;998;49.906;10.908;2022-07-21T10:20:07;6.60;;;5.30;;
1993;SDS011;998;49.906;10.908;2022-07-21T10:22:47;9.67;;;5.80;;
1993;SDS011;998;49.906;10.908;2022-07-21T10:25:23;8.43;;;5.30;;
1993;SDS011;998;49.906;10.908;2022-07-21T10:30:40;6.70;;;4.67;;
1993;SDS011;998;49.906;10.908;2022-07-21T10:33:08;5.80;;;4.20;;
1993;SDS011;998;49.906;10.908;2022-07-21T10:35:40;6.80;;;4.23;;
1993;SDS011;998;49.906;10.908;2022-07-21T10:38:15;5.07;;;4.20;;
1993;SDS011;998;49.906;10.908;2022-07-21T10:40:51;9.23;;;4.80;;
1993;SDS011;998;49.906;10.908;2022-07-21T10:43:38;4.90;;;4.10;;
1993;SDS011;998;49.906;10.908;2022-07-21T10:49:02;7.10;;;5.00;;
1993;SDS011;998;49.906;10.908;2022-07-21T10:51:33;6.20;;;4.90;;
1993;SDS011;998;49.906;10.908;2022-07-21T10:57:23;6.83;;;5.07;;
1993;SDS011;998;49.906;10.908;2022-07-21T11:02:44;6.73;;;4.90;;
1993;SDS011;998;49.906;10.908;2022-07-21T11:05:13;8.90;;;5.40;;
1993;SDS011;998;49.906;10.908;2022-07-21T11:10:42;6.90;;;5.77;;
1993;SDS011;998;49.906;10.908;2022-07-21T11:13:11;5.93;;;4.87;;
1993;SDS011;998;49.906;10.908;2022-07-21T11:18:26;8.83;;;5.10;;
1993;SDS011;998;49.906;10.908;2022-07-21T11:23:45;8.80;;;5.00;;
1993;SDS011;998;49.906;10.908;2022-07-21T11:26:14;6.43;;;5.37;;
1993;SDS011;998;49.906;10.908;2022-07-21T11:28:43;6.57;;;5.00;;
1993;SDS011;998;49.906;10.908;2022-07-21T11:31:11;5.80;;;4.20;;
1993;SDS011;998;49.906;10.908;2022-07-21T11:33:41;5.90;;;4.43;;
1993;SDS011;998;49.906;10.908;2022-07-21T11:36:11;5.73;;;4.43;;
1993;SDS011;998;49.906;10.908;2022-07-21T11:39:01;9.00;;;4.60;;
1993;SDS011;998;49.906;10.908;2022-07-21T11:41:31;7.70;;;4.80;;
1993;SDS011;998;49.906;10.908;2022-07-21T11:43:59;5.10;;;4.13;;
1993;SDS011;998;49.906;10.908;2022-07-21T11:46:27;5.03;;;4.07;;
1993;SDS011;998;49.906;10.908;2022-07-21T11:49:01;6.27;;;4.47;;
1993;SDS011;998;49.906;10.908;2022-07-21T11:51:29;7.10;;;3.90;;
1993;SDS011;998;49.906;10.908;2022-07-21T11:53:56;4.73;;;3.67;;
1993;SDS011;998;49.906;10.908;2022-07-21T11:56:24;5.50;;;4.10;;
1993;SDS011;998;49.906;10.908;2022-07-21T11:58:51;5.90;;;3.93;;
1993;SDS011;998;49.906;10.908;2022-07-21T12:01:51;6.60;;;3.80;;
1993;SDS011;998;49.906;10.908;2022-07-21T12:04:29;3.93;;;3.50;;
1993;SDS011;998;49.906;10.908;2022-07-21T12:07:04;6.23;;;4.20;;
1993;SDS011;998;49.906;10.908;2022-07-21T12:09:36;6.50;;;4.00;;
1993;SDS011;998;49.906;10.908;2022-07-21T12:12:05;3.57;;;2.47;;
1993;SDS011;998;49.906;10.908;2022-07-21T12:14:39;5.03;;;3.77;;
1993;SDS011;998;49.906;10.908;2022-07-21T12:17:07;5.87;;;3.70;;
1993;SDS011;998;49.906;10.908;2022-07-21T12:19:34;5.73;;;3.30;;
1993;SDS011;998;49.906;10.908;2022-07-21T12:22:02;6.43;;;3.80;;
1993;SDS011;998;49.906;10.908;2022-07-21T12:24:52;4.30;;;3.20;;
1993;SDS011;998;49.906;10.908;2022-07-21T12:27:21;5.47;;;3.60;;
1993;SDS011;998;49.906;10.908;2022-07-21T12:29:49;4.90;;;3.73;;
1993;SDS011;998;49.906;10.908;2022-07-21T12:37:59;4.77;;;4.20;;
1993;SDS011;998;49.906;10.908;2022-07-21T12:40:38;4.50;;;3.87;;
1993;SDS011;998;49.906;10.908;2022-07-21T12:43:11;4.50;;;3.73;;
1993;SDS011;998;49.906;10.908;2022-07-21T12:45:44;4.70;;;4.13;;
1993;SDS011;998;49.906;10.908;2022-07-21T12:48:13;4.43;;;3.60;;
1993;SDS011;998;49.906;10.908;2022-07-21T12:50:42;4.43;;;3.37;;
1993;SDS011;998;49.906;10.908;2022-07-21T12:53:22;5.83;;;4.40;;
1993;SDS011;998;49.906;10.908;2022-07-21T12:55:53;6.13;;;3.93;;
1993;SDS011;998;49.906;10.908;2022-07-21T13:01:07;4.33;;;3.50;;
1993;SDS011;998;49.906;10.908;2022-07-21T13:03:34;5.70;;;3.53;;
1993;SDS011;998;49.906;10.908;2022-07-21T13:06:05;4.40;;;3.23;;
1993;SDS011;998;49.906;10.908;2022-07-21T13:08:33;5.27;;;3.90;;
1993;SDS011;998;49.906;10.908;2022-07-21T13:11:01;7.20;;;4.57;;
1993;SDS011;998;49.906;10.908;2022-07-21T13:13:30;5.97;;;3.47;;
1993;SDS011;998;49.906;10.908;2022-07-21T13:15:59;4.60;;;4.10;;
1993;SDS011;998;49.906;10.908;2022-07-21T13:18:25;4.67;;;3.70;;
1993;SDS011;998;49.906;10.908;2022-07-21T13:20:52;5.33;;;3.73;;
1993;SDS011;998;49.906;10.908;2022-07-21T13:23:25;7.57;;;4.13;;
1993;SDS011;998;49.906;10.908;2022-07-21T13:25:54;4.90;;;3.90;;
1993;SDS011;998;49.906;10.908;2022-07-21T13:28:21;4.50;;;3.13;;
1993;SDS011;998;49.906;10.908;2022-07-21T13:30:47;5.13;;;3.87;;
1993;SDS011;998;49.906;10.908;2022-07-21T13:33:16;4.70;;;3.30;;
1993;SDS011;998;49.906;10.908;2022-07-21T13:35:43;4.40;;;3.60;;
1993;SDS011;998;49.906;10.908;2022-07-21T13:38:10;4.57;;;3.70;;
1993;SDS011;998;49.906;10.908;2022-07-21T13:40:37;8.37;;;3.70;;
1993;SDS011;998;49.906;10.908;2022-07-21T13:43:04;5.53;;;3.67;;
1993;SDS011;998;49.906;10.908;2022-07-21T13:45:31;5.13;;;3.47;;
1993;SDS011;998;49.906;10.908;2022-07-21T13:47:58;5.40;;;4.00;;
1993;SDS011;998;49.906;10.908;2022-07-21T13:50:26;5.30;;;3.73;;
1993;SDS011;998;49.906;10.908;2022-07-21T13:52:53;6.93;;;3.83;;
1993;SDS011;998;49.906;10.908;2022-07-21T13:55:20;5.50;;;4.53;;
1993;SDS011;998;49.906;10.908;2022-07-21T13:57:47;8.00;;;3.67;;
1993;SDS011;998;49.906;10.908;2022-07-21T14:00:15;4.97;;;3.67;;
1993;SDS011;998;49.906;10.908;2022-07-21T14:02:44;5.63;;;3.57;;
1993;SDS011;998;49.906;10.908;2022-07-21T14:05:16;7.00;;;3.93;;
1993;SDS011;998;49.906;10.908;2022-07-21T14:07:47;6.77;;;3.90;;
1993;SDS011;998;49.906;10.908;2022-07-21T14:10:14;4.10;;;3.20;;
1993;SDS011;998;49.906;10.908;2022-07-21T14:12:41;4.20;;;3.30;;
1993;SDS011;998;49.906;10.908;2022-07-21T14:15:08;5.00;;;3.23;;
1993;SDS011;998;49.906;10.908;2022-07-21T14:17:35;5.53;;;3.53;;
1993;SDS011;998;49.906;10.908;2022-07-21T14:20:02;4.83;;;3.30;;
1993;SDS011;998;49.906;10.908;2022-07-21T14:22:29;4.23;;;2.90;;
1993;SDS011;998;49.906;10.908;2022-07-21T14:24:58;6.30;;;3.53;;
1993;SDS011;998;49.906;10.908;2022-07-21T14:27:42;5.97;;;3.70;;
1993;SDS011;998;49.906;10.908;2022-07-21T14:30:09;5.83;;;3.50;;
1993;SDS011;998;49.906;10.908;2022-07-21T14:32:36;5.57;;;3.53;;
1993;SDS011;998;49.906;10.908;2022-07-21T14:35:03;4.30;;;3.20;;
1993;SDS011;998;49.906;10.908;2022-07-21T14:37:31;4.40;;;3.07;;
1993;SDS011;998;49.906;10.908;2022-07-21T14:39:59;8.33;;;3.30;;
1993;SDS011;998;49.906;10.908;2022-07-21T14:42:26;5.07;;;3.40;;
1993;SDS011;998;49.906;10.908;2022-07-21T14:44:53;5.67;;;3.00;;
1993;SDS011;998;49.906;10.908;2022-07-21T14:47:21;3.90;;;2.90;;
1993;SDS011;998;49.906;10.908;2022-07-21T14:49:48;3.47;;;2.50;;
1993;SDS011;998;49.906;10.908;2022-07-21T14:52:15;4.23;;;3.10;;
1993;SDS011;998;49.906;10.908;2022-07-21T14:54:42;6.00;;;3.30;;
1993;SDS011;998;49.906;10.908;2022-07-21T14:57:10;3.60;;;2.83;;
1993;SDS011;998;49.906;10.908;2022-07-21T14:59:37;6.60;;;2.90;;
1993;SDS011;998;49.906;10.908;2022-07-21T15:02:04;3.70;;;3.00;;
1993;SDS011;998;49.906;10.908;2022-07-21T15:04:31;4.93;;;3.33;;
1993;SDS011;998;49.906;10.908;2022-07-21T15:06:58;7.93;;;3.10;;
1993;SDS011;998;49.906;10.908;2022-07-21T15:09:25;4.07;;;3.20;;
1993;SDS011;998;49.906;10.908;2022-07-21T15:11:52;4.30;;;3.20;;
1993;SDS011;998;49.906;10.908;2022-07-21T15:14:20;4.60;;;3.20;;
1993;SDS011;998;49.906;10.908;2022-07-21T15:16:47;10.37;;;3.30;;
1993;SDS011;998;49.906;10.908;2022-07-21T15:19:14;4.10;;;3.17;;
1993;SDS011;998;49.906;10.908;2022-07-21T15:21:41;4.53;;;3.00;;
1993;SDS011;998;49.906;10.908;2022-07-21T15:24:09;4.70;;;3.30;;
1993;SDS011;998;49.906;10.908;2022-07-21T15:26:36;5.43;;;3.13;;
1993;SDS011;998;49.906;10.908;2022-07-21T15:29:03;5.70;;;3.80;;
1993;SDS011;998;49.906;10.908;2022-07-21T15:31:31;5.17;;;3.10;;
1993;SDS011;998;49.906;10.908;2022-07-21T15:33:58;4.43;;;3.10;;
1993;SDS011;998;49.906;10.908;2022-07-21T15:36:25;5.00;;;3.53;;
1993;SDS011;998;49.906;10.908;2022-07-21T15:38:54;4.37;;;3.73;;
1993;SDS011;998;49.906;10.908;2022-07-21T15:41:22;4.90;;;3.53;;
1993;SDS011;998;49.906;10.908;2022-07-21T15:43:49;5.83;;;3.53;;
1993;SDS011;998;49.906;10.908;2022-07-21T15:46:15;4.90;;;3.33;;
1993;SDS011;998;49.906;10.908;2022-07-21T15:48:44;7.90;;;3.43;;
1993;SDS011;998;49.906;10.908;2022-07-21T15:51:11;8.30;;;3.90;;
1993;SDS011;998;49.906;10.908;2022-07-21T15:53:37;4.83;;;3.97;;
1993;SDS011;998;49.906;10.908;2022-07-21T15:56:05;4.57;;;2.83;;
1993;SDS011;998;49.906;10.908;2022-07-21T15:58:33;6.50;;;3.90;;
1993;SDS011;998;49.906;10.908;2022-07-21T16:00:59;5.50;;;4.00;;
1993;SDS011;998;49.906;10.908;2022-07-21T16:03:26;5.00;;;3.50;;
1993;SDS011;998;49.906;10.908;2022-07-21T16:05:54;5.30;;;3.40;;
1993;SDS011;998;49.906;10.908;2022-07-21T16:08:21;5.77;;;4.50;;
1993;SDS011;998;49.906;10.908;2022-07-21T16:10:50;5.73;;;3.50;;
1993;SDS011;998;49.906;10.908;2022-07-21T16:13:17;5.53;;;4.30;;
1993;SDS011;998;49.906;10.908;2022-07-21T16:15:43;5.23;;;3.80;;
1993;SDS011;998;49.906;10.908;2022-07-21T16:18:10;7.60;;;4.27;;
1993;SDS011;998;49.906;10.908;2022-07-21T16:20:37;6.93;;;3.80;;
1993;SDS011;998;49.906;10.908;2022-07-21T16:23:05;5.73;;;3.90;;
1993;SDS011;998;49.906;10.908;2022-07-21T16:25:32;5.60;;;4.53;;
1993;SDS011;998;49.906;10.908;2022-07-21T16:27:59;6.20;;;4.20;;
1993;SDS011;998;49.906;10.908;2022-07-21T16:30:26;5.43;;;3.97;;
1993;SDS011;998;49.906;10.908;2022-07-21T16:32:53;12.50;;;4.70;;
1993;SDS011;998;49.906;10.908;2022-07-21T16:35:20;8.10;;;4.07;;
1993;SDS011;998;49.906;10.908;2022-07-21T16:37:48;5.40;;;3.97;;
1993;SDS011;998;49.906;10.908;2022-07-21T16:40:17;6.33;;;4.27;;
1993;SDS011;998;49.906;10.908;2022-07-21T16:42:45;5.60;;;4.50;;
1993;SDS011;998;49.906;10.908;2022-07-21T16:45:12;6.90;;;4.13;;
1993;SDS011;998;49.906;10.908;2022-07-21T16:47:43;5.90;;;4.40;;
1993;SDS011;998;49.906;10.908;2022-07-21T16:50:11;4.43;;;3.90;;
1993;SDS011;998;49.906;10.908;2022-07-21T16:52:40;5.37;;;3.93;;
1993;SDS011;998;49.906;10.908;2022-07-21T16:55:07;7.47;;;4.73;;
1993;SDS011;998;49.906;10.908;2022-07-21T16:57:36;5.53;;;4.40;;
1993;SDS011;998;49.906;10.908;2022-07-21T17:00:03;5.70;;;4.80;;
1993;SDS011;998;49.906;10.908;2022-07-21T17:02:31;5.13;;;3.90;;
1993;SDS011;998;49.906;10.908;2022-07-21T17:04:58;5.87;;;4.43;;
1993;SDS011;998;49.906;10.908;2022-07-21T17:07:24;5.67;;;4.80;;
1993;SDS011;998;49.906;10.908;2022-07-21T17:09:51;9.90;;;6.27;;
1993;SDS011;998;49.906;10.908;2022-07-21T17:12:18;5.33;;;4.47;;
1993;SDS011;998;49.906;10.908;2022-07-21T17:14:47;6.87;;;4.60;;
1993;SDS011;998;49.906;10.908;2022-07-21T17:17:13;7.30;;;4.60;;
1993;SDS011;998;49.906;10.908;2022-07-21T17:19:40;6.50;;;4.43;;
1993;SDS011;998;49.906;10.908;2022-07-21T17:22:07;5.33;;;4.83;;
1993;SDS011;998;49.906;10.908;2022-07-21T17:24:34;6.80;;;4.67;;
1993;SDS011;998;49.906;10.908;2022-07-21T17:27:01;5.57;;;4.67;;
1993;SDS011;998;49.906;10.908;2022-07-21T17:29:28;4.97;;;4.47;;
1993;SDS011;998;49.906;10.908;2022-07-21T17:31:56;6.37;;;4.60;;
1993;SDS011;998;49.906;10.908;2022-07-21T17:34:23;6.00;;;5.30;;
1993;SDS011;998;49.906;10.908;2022-07-21T17:36:50;6.70;;;4.93;;
1993;SDS011;998;49.906;10.908;2022-07-21T17:39:17;11.13;;;4.70;;
1993;SDS011;998;49.906;10.908;2022-07-21T17:41:44;5.80;;;4.30;;
1993;SDS011;998;49.906;10.908;2022-07-21T17:44:11;5.30;;;4.10;;
1993;SDS011;998;49.906;10.908;2022-07-21T17:46:38;9.43;;;5.13;;
1993;SDS011;998;49.906;10.908;2022-07-21T17:49:06;5.87;;;5.13;;
1993;SDS011;998;49.906;10.908;2022-07-21T17:51:33;6.10;;;4.80;;
1993;SDS011;998;49.906;10.908;2022-07-21T17:53:59;5.40;;;4.40;;
1993;SDS011;998;49.906;10.908;2022-07-21T17:56:29;6.80;;;4.90;;
1993;SDS011;998;49.906;10.908;2022-07-21T17:58:56;11.13;;;5.00;;
1993;SDS011;998;49.906;10.908;2022-07-21T18:01:22;6.40;;;4.80;;
1993;SDS011;998;49.906;10.908;2022-07-21T18:03:50;5.90;;;5.17;;
1993;SDS011;998;49.906;10.908;2022-07-21T18:06:20;5.37;;;4.50;;
1993;SDS011;998;49.906;10.908;2022-07-21T18:08:48;6.20;;;4.90;;
1993;SDS011;998;49.906;10.908;2022-07-21T18:11:19;5.43;;;4.60;;
1993;SDS011;998;49.906;10.908;2022-07-21T18:13:46;8.70;;;4.73;;
1993;SDS011;998;49.906;10.908;2022-07-21T18:16:13;7.97;;;4.73;;
1993;SDS011;998;49.906;10.908;2022-07-21T18:18:40;6.97;;;4.80;;
1993;SDS011;998;49.906;10.908;2022-07-21T18:21:07;7.93;;;5.50;;
1993;SDS011;998;49.906;10.908;2022-07-21T18:23:35;6.20;;;4.53;;
1993;SDS011;998;49.906;10.908;2022-07-21T18:26:02;6.23;;;4.80;;
1993;SDS011;998;49.906;10.908;2022-07-21T18:28:29;9.00;;;5.03;;
1993;SDS011;998;49.906;10.908;2022-07-21T18:30:56;7.80;;;5.83;;
1993;SDS011;998;49.906;10.908;2022-07-21T18:33:23;8.23;;;5.07;;
1993;SDS011;998;49.906;10.908;2022-07-21T18:35:50;6.00;;;4.73;;
1993;SDS011;998;49.906;10.908;2022-07-21T18:38:16;8.40;;;5.97;;
1993;SDS011;998;49.906;10.908;2022-07-21T18:40:45;11.03;;;4.83;;
1993;SDS011;998;49.906;10.908;2022-07-21T18:43:12;7.03;;;5.30;;
1993;SDS011;998;49.906;10.908;2022-07-21T18:45:38;7.20;;;5.20;;
1993;SDS011;998;49.906;10.908;2022-07-21T18:48:07;6.60;;;5.33;;
1993;SDS011;998;49.906;10.908;2022-07-21T18:50:34;7.07;;;5.40;;
1993;SDS011;998;49.906;10.908;2022-07-21T18:53:00;10.87;;;5.20;;
1993;SDS011;998;49.906;10.908;2022-07-21T18:55:28;5.47;;;4.73;;
1993;SDS011;998;49.906;10.908;2022-07-21T18:57:56;6.83;;;5.27;;
1993;SDS011;998;49.906;10.908;2022-07-21T19:00:23;5.83;;;5.23;;
1993;SDS011;998;49.906;10.908;2022-07-21T19:02:50;5.90;;;5.30;;
1993;SDS011;998;49.906;10.908;2022-07-21T19:05:17;7.63;;;5.00;;
1993;SDS011;998;49.906;10.908;2022-07-21T19:07:44;7.00;;;5.50;;
1993;SDS011;998;49.906;10.908;2022-07-21T19:10:12;6.70;;;4.40;;
1993;SDS011;998;49.906;10.908;2022-07-21T19:12:40;7.20;;;5.40;;
1993;SDS011;998;49.906;10.908;2022-07-21T19:15:08;9.83;;;5.77;;